Aviation Digital Data Service (ADDS)

Output produced by METARs form (1826 UTC 16 August 2018)
found at http://www.aviationweather.gov/adds/metars/
 
MBGT 161100Z 1612/1712 12015G25KT 7000 SHRA SCT016CB SCT018 BKN080 
     BECMG 1619/1621 11012KT 9999 SCT018
       
MBPV 161100Z 1612/1712 12015G25KT 7000 SHRA SCT016CB SCT018 BKN080 
     BECMG 1619/1621 11012KT 9999 SCT018